Time;durP1;ratioP1;P1;durP2;ratioP2;P2;SDS_P1;SDS_P2;PMS_P1;PMS_P2;Temp;Humidity;BMP_temperature;BMP_pressure;BME280_temperature;BME280_humidity;BME280_pressure;Samples;Min_cycle;Max_cycle;Signal;HPM_P1;HPM_P2
2022/04/20 00:01:14;;;;;;;1.58;0.88;;;10.20;99.90;;;;;;5006581;28;21838;-73
2022/04/20 00:03:40;;;;;;;1.02;0.82;;;10.30;99.90;;;;;;5009888;28;20532;-73
2022/04/20 00:06:06;;;;;;;1.08;0.93;;;10.20;99.90;;;;;;5009495;28;20025;-72
2022/04/20 00:08:32;;;;;;;1.55;0.55;;;10.30;99.90;;;;;;5009599;28;20065;-73
2022/04/20 00:11:01;;;;;;;0.80;0.70;;;10.30;99.90;;;;;;5007270;28;20478;-74
2022/04/20 00:13:27;;;;;;;1.25;0.90;;;10.30;99.90;;;;;;5008893;28;20033;-71
2022/04/20 00:15:53;;;;;;;2.28;0.70;;;10.30;99.90;;;;;;5009557;28;20030;-73
2022/04/20 00:18:19;;;;;;;0.95;0.80;;;10.20;99.90;;;;;;5007328;28;20025;-73
2022/04/20 00:20:45;;;;;;;0.75;0.75;;;10.30;99.90;;;;;;5008482;28;20145;-73
2022/04/20 00:23:10;;;;;;;0.93;0.75;;;10.40;99.90;;;;;;5008775;28;20076;-74
2022/04/20 00:25:36;;;;;;;0.75;0.70;;;10.40;99.90;;;;;;5008856;28;20026;-73
2022/04/20 00:28:02;;;;;;;0.80;0.80;;;10.40;99.90;;;;;;5007495;28;20105;-71
2022/04/20 00:30:28;;;;;;;0.52;0.52;;;10.40;99.90;;;;;;5008756;28;20068;-73
2022/04/20 00:32:55;;;;;;;1.27;0.63;;;10.40;99.90;;;;;;5005964;28;20490;-71
2022/04/20 00:35:21;;;;;;;1.10;1.00;;;10.30;99.90;;;;;;5009777;28;20029;-73
2022/04/20 00:37:48;;;;;;;1.10;0.73;;;10.30;99.90;;;;;;5009198;28;20022;-73
2022/04/20 00:40:14;;;;;;;0.70;0.70;;;10.30;99.90;;;;;;5008147;28;20092;-72
2022/04/20 00:42:41;;;;;;;4.07;3.65;;;10.40;99.90;;;;;;5004695;28;20022;-72
2022/04/20 00:45:12;;;;;;;0.80;0.80;;;10.40;99.90;;;;;;5008302;28;20033;-72
2022/04/20 00:47:39;;;;;;;1.65;1.02;;;10.40;99.90;;;;;;5009560;28;20026;-72
2022/04/20 00:50:06;;;;;;;1.48;0.90;;;10.30;99.90;;;;;;5008223;28;20028;-72
2022/04/20 00:52:32;;;;;;;1.40;1.25;;;10.30;99.90;;;;;;5004261;28;20124;-72
2022/04/20 00:54:58;;;;;;;1.10;1.00;;;10.40;99.90;;;;;;5006749;28;20034;-72
2022/04/20 00:57:25;;;;;;;1.85;1.20;;;10.40;99.90;;;;;;5003687;28;20064;-73
2022/04/20 00:59:56;;;;;;;3.08;1.00;;;10.50;99.90;;;;;;5007332;28;20038;-72
2022/04/20 01:02:22;;;;;;;1.58;0.82;;;10.60;99.90;;;;;;5009036;28;20032;-73
2022/04/20 01:04:48;;;;;;;3.53;1.00;;;10.60;99.90;;;;;;5010757;28;20117;-72
2022/04/20 01:07:16;;;;;;;1.67;1.52;;;10.60;99.90;;;;;;5008968;28;20034;-72
2022/04/20 01:09:43;;;;;;;1.63;0.77;;;10.60;99.90;;;;;;5009112;28;20109;-72
2022/04/20 01:12:09;;;;;;;4.25;2.95;;;10.50;99.90;;;;;;5006574;28;20034;-71
2022/04/20 01:14:36;;;;;;;1.48;1.00;;;10.50;99.90;;;;;;5007395;28;20053;-73
2022/04/20 01:17:03;;;;;;;1.55;1.40;;;10.50;99.90;;;;;;5010049;28;20042;-73
2022/04/20 01:19:38;;;;;;;1.90;0.90;;;10.50;99.90;;;;;;5007526;28;20088;-72
2022/04/20 01:22:05;;;;;;;1.17;0.93;;;10.40;99.90;;;;;;5002130;28;20030;-72
2022/04/20 01:24:32;;;;;;;1.02;0.90;;;10.40;99.90;;;;;;5008902;28;20104;-72
2022/04/20 01:26:58;;;;;;;0.90;0.75;;;10.40;99.90;;;;;;5003341;28;20057;-72
2022/04/20 01:29:28;;;;;;;5.13;0.98;;;10.40;99.90;;;;;;5002935;28;20105;-72
2022/04/20 01:32:12;;;;;;;2.10;0.98;;;10.40;99.90;;;;;;4998987;28;20045;-73
2022/04/20 01:34:38;;;;;;;1.00;0.98;;;10.40;99.90;;;;;;5001710;28;20029;-75
2022/04/20 01:37:10;;;;;;;3.17;0.95;;;10.40;99.90;;;;;;5000309;28;20027;-75
2022/04/20 01:39:36;;;;;;;1.23;1.05;;;10.40;99.90;;;;;;5003311;28;20026;-73
2022/04/20 01:42:02;;;;;;;0.90;0.63;;;10.40;99.90;;;;;;5008768;28;20037;-71
2022/04/20 01:44:27;;;;;;;1.00;0.90;;;10.50;99.90;;;;;;5002693;28;20029;-72
2022/04/20 01:46:53;;;;;;;1.45;0.55;;;10.50;99.90;;;;;;5009918;28;20470;-73
2022/04/20 01:49:19;;;;;;;1.23;0.90;;;10.50;99.90;;;;;;5009444;28;20038;-73
2022/04/20 01:51:47;;;;;;;13.43;1.42;;;10.40;99.90;;;;;;5007598;28;20105;-72
2022/04/20 01:54:14;;;;;;;0.82;0.70;;;10.40;99.90;;;;;;5008160;28;20032;-74
2022/04/20 01:56:39;;;;;;;0.70;0.70;;;10.40;99.90;;;;;;5007793;28;20478;-72
2022/04/20 01:59:05;;;;;;;1.40;0.70;;;10.40;99.90;;;;;;5005410;28;20215;-72
2022/04/20 02:04:16;;;;;;;0.85;0.85;;;10.40;99.90;;;;;;5007709;28;20439;-73
2022/04/20 02:06:41;;;;;;;1.90;0.55;;;10.40;99.90;;;;;;5008149;28;20113;-73
2022/04/20 02:09:07;;;;;;;0.85;0.85;;;10.30;99.90;;;;;;5007300;28;20513;-73
2022/04/20 02:11:33;;;;;;;2.38;0.85;;;10.20;99.90;;;;;;5006700;28;20036;-72
2022/04/20 02:13:59;;;;;;;1.00;0.80;;;10.20;99.90;;;;;;5009252;28;20111;-71
2022/04/20 02:16:25;;;;;;;0.95;0.80;;;10.20;99.90;;;;;;5012818;28;20026;-72
2022/04/20 02:18:51;;;;;;;0.80;0.80;;;10.10;99.90;;;;;;5010612;28;20038;-73
2022/04/20 02:21:17;;;;;;;0.50;0.40;;;10.10;99.90;;;;;;5010704;28;20132;-72
2022/04/20 02:23:43;;;;;;;2.88;0.85;;;10.10;99.90;;;;;;5005831;28;20109;-72
2022/04/20 02:26:08;;;;;;;0.80;0.80;;;10.00;99.90;;;;;;5004693;28;20646;-74
2022/04/20 02:28:34;;;;;;;5.13;0.70;;;9.90;99.90;;;;;;5010256;28;20037;-73
2022/04/20 02:31:00;;;;;;;1.90;0.90;;;9.90;99.90;;;;;;5012120;28;20030;-73
2022/04/20 02:33:26;;;;;;;2.45;0.90;;;9.90;99.90;;;;;;5010988;28;20521;-73
2022/04/20 02:35:52;;;;;;;0.90;0.75;;;9.90;99.90;;;;;;5012152;28;20026;-73
2022/04/20 02:38:18;;;;;;;2.90;1.05;;;9.90;99.90;;;;;;5012603;28;20030;-73
2022/04/20 02:40:44;;;;;;;1.02;0.95;;;9.80;99.90;;;;;;5010607;28;20029;-72
2022/04/20 02:43:10;;;;;;;0.75;0.70;;;9.80;99.90;;;;;;5007319;28;20057;-71
2022/04/20 02:45:37;;;;;;;0.95;0.88;;;9.80;99.90;;;;;;5010575;28;20057;-73
2022/04/20 02:48:03;;;;;;;0.90;0.80;;;9.80;99.90;;;;;;5011541;28;20100;-73
2022/04/20 02:50:29;;;;;;;1.02;0.63;;;9.80;99.90;;;;;;5010090;28;20026;-72
2022/04/20 02:52:55;;;;;;;1.63;0.90;;;9.70;99.90;;;;;;5008873;28;20026;-73
2022/04/20 02:55:21;;;;;;;1.65;0.90;;;9.70;99.90;;;;;;5008958;28;20029;-74
2022/04/20 02:57:51;;;;;;;1.52;1.42;;;9.80;99.90;;;;;;5010408;28;20486;-74
2022/04/20 03:00:18;;;;;;;0.75;0.75;;;9.80;99.90;;;;;;5012524;28;20088;-72
2022/04/20 03:02:43;;;;;;;1.05;0.77;;;9.80;99.90;;;;;;5017945;28;20026;-73
2022/04/20 03:05:09;;;;;;;2.65;1.08;;;9.70;99.90;;;;;;5019307;28;20018;-73
2022/04/20 03:07:35;;;;;;;0.85;0.85;;;9.80;99.90;;;;;;5014710;28;20133;-73
2022/04/20 03:10:02;;;;;;;1.50;0.75;;;9.80;99.90;;;;;;5012835;28;20029;-75
2022/04/20 03:12:29;;;;;;;1.52;1.05;;;9.70;99.90;;;;;;5019853;28;20155;-75
2022/04/20 03:14:55;;;;;;;0.85;0.85;;;9.70;99.90;;;;;;5015237;28;20032;-75
2022/04/20 03:17:25;;;;;;;0.68;0.68;;;9.70;99.90;;;;;;5010482;28;20095;-73
2022/04/20 03:19:51;;;;;;;0.82;0.82;;;9.70;99.90;;;;;;5010198;28;20029;-72
2022/04/20 03:22:17;;;;;;;1.48;1.38;;;9.70;99.90;;;;;;5009295;28;20025;-72
2022/04/20 03:24:44;;;;;;;0.80;0.80;;;9.80;99.90;;;;;;5011430;28;20018;-72
2022/04/20 03:27:09;;;;;;;2.78;0.82;;;9.70;99.90;;;;;;5006504;28;20712;-73
2022/04/20 03:29:35;;;;;;;1.35;1.02;;;9.70;99.90;;;;;;5002669;28;20018;-75
2022/04/20 03:32:12;;;;;;;1.45;1.17;;;9.70;99.90;;;;;;5009880;28;20026;-74
2022/04/20 03:34:39;;;;;;;0.95;0.90;;;9.80;99.90;;;;;;5010156;28;20466;-73
2022/04/20 03:37:06;;;;;;;1.05;0.80;;;9.70;99.90;;;;;;5005443;28;20072;-73
2022/04/20 03:39:35;;;;;;;0.82;0.82;;;9.70;99.90;;;;;;5008851;28;20036;-75
2022/04/20 03:42:01;;;;;;;2.70;1.05;;;9.70;99.90;;;;;;5006090;28;20025;-72
2022/04/20 03:44:27;;;;;;;1.33;0.75;;;9.70;99.90;;;;;;5006998;28;20109;-74
2022/04/20 03:46:53;;;;;;;1.27;1.17;;;9.70;99.90;;;;;;5011164;28;20109;-73
2022/04/20 03:49:19;;;;;;;1.95;1.42;;;9.70;99.90;;;;;;5009309;28;20026;-73
2022/04/20 03:51:46;;;;;;;1.27;0.90;;;9.70;99.90;;;;;;5009706;28;20116;-73
2022/04/20 03:54:15;;;;;;;0.80;0.80;;;9.70;99.90;;;;;;5008651;28;20095;-74
2022/04/20 03:59:26;;;;;;;2.25;1.30;;;9.60;99.90;;;;;;5002805;28;20040;-73
2022/04/20 04:01:51;;;;;;;1.20;1.10;;;9.60;99.90;;;;;;5010031;28;20038;-73
2022/04/20 04:04:21;;;;;;;1.38;0.93;;;9.60;99.90;;;;;;5009991;28;20374;-74
2022/04/20 04:06:47;;;;;;;0.93;0.93;;;9.70;99.90;;;;;;5010681;28;20072;-75
2022/04/20 04:09:13;;;;;;;1.23;0.90;;;9.70;99.90;;;;;;5009436;28;20056;-73
2022/04/20 04:11:39;;;;;;;1.08;0.98;;;9.60;99.90;;;;;;5009863;28;20026;-72
2022/04/20 04:14:05;;;;;;;2.03;1.77;;;9.60;99.90;;;;;;5008748;28;20057;-74
2022/04/20 04:16:36;;;;;;;2.22;1.65;;;9.60;99.90;;;;;;5011651;28;20146;-73
2022/04/20 04:19:06;;;;;;;0.88;0.88;;;9.70;99.90;;;;;;5011199;28;20124;-74
2022/04/20 04:21:36;;;;;;;1.40;1.27;;;9.70;99.90;;;;;;5011290;28;20036;-74
2022/04/20 04:24:02;;;;;;;2.05;1.10;;;9.70;99.90;;;;;;5011205;28;20481;-74
2022/04/20 04:26:30;;;;;;;1.83;1.38;;;9.70;99.90;;;;;;5008142;28;20033;-74
2022/04/20 04:28:56;;;;;;;6.07;1.20;;;9.70;99.90;;;;;;5007837;28;20132;-74
2022/04/20 04:31:22;;;;;;;1.20;1.10;;;9.70;99.90;;;;;;5009535;28;20030;-73
2022/04/20 04:33:47;;;;;;;2.25;1.50;;;9.60;99.90;;;;;;5004997;28;20025;-73
2022/04/20 04:36:13;;;;;;;0.95;0.95;;;9.60;99.90;;;;;;5008186;28;20025;-74
2022/04/20 04:38:39;;;;;;;1.20;1.10;;;9.60;99.90;;;;;;5010656;28;20026;-74
2022/04/20 04:41:05;;;;;;;1.20;1.05;;;9.60;99.90;;;;;;5009147;28;20021;-74
2022/04/20 04:43:30;;;;;;;3.03;1.35;;;9.70;99.90;;;;;;5008441;28;20034;-73
2022/04/20 04:48:40;;;;;;;1.33;1.15;;;9.70;99.90;;;;;;5008491;28;20044;-75
2022/04/20 04:51:07;;;;;;;1.70;1.20;;;9.80;99.90;;;;;;5008645;28;20030;-72
2022/04/20 04:53:33;;;;;;;1.30;1.20;;;9.80;99.90;;;;;;5006651;28;20022;-73
2022/04/20 04:55:58;;;;;;;1.63;1.20;;;9.70;99.90;;;;;;5007341;28;20037;-73
2022/04/20 04:58:24;;;;;;;3.65;1.92;;;9.90;99.90;;;;;;5008297;28;20030;-73
2022/04/20 05:00:50;;;;;;;1.55;1.45;;;9.90;99.90;;;;;;5010205;28;20398;-74
2022/04/20 05:03:16;;;;;;;1.55;1.00;;;9.90;99.90;;;;;;5008816;28;20109;-73
2022/04/20 05:05:43;;;;;;;1.67;1.42;;;9.90;99.90;;;;;;5012620;28;20432;-74
2022/04/20 05:08:09;;;;;;;6.10;1.10;;;10.00;99.90;;;;;;5010685;28;20105;-72
2022/04/20 05:10:35;;;;;;;4.22;1.35;;;10.10;99.90;;;;;;5002361;28;20116;-72
2022/04/20 05:13:01;;;;;;;1.67;1.58;;;10.00;99.90;;;;;;5006812;28;20105;-73
2022/04/20 05:15:27;;;;;;;1.17;1.05;;;10.10;99.90;;;;;;5004887;28;20101;-73
2022/04/20 05:17:53;;;;;;;1.50;1.40;;;10.10;99.90;;;;;;5012307;28;20026;-74
2022/04/20 05:20:19;;;;;;;1.27;1.17;;;10.10;99.90;;;;;;5009359;28;20034;-74
2022/04/20 05:22:46;;;;;;;1.85;1.70;;;10.10;99.90;;;;;;5002876;28;20025;-73
2022/04/20 05:25:12;;;;;;;2.03;1.77;;;10.00;99.90;;;;;;5004986;28;20037;-73
2022/04/20 05:27:38;;;;;;;1.63;1.40;;;10.00;99.90;;;;;;5002938;28;20072;-73
2022/04/20 05:30:06;;;;;;;3.45;2.38;;;10.10;99.90;;;;;;5007130;28;20025;-72
2022/04/20 05:32:32;;;;;;;2.00;1.48;;;10.00;99.90;;;;;;5007572;28;20026;-73
2022/04/20 05:34:58;;;;;;;1.55;1.40;;;10.00;99.90;;;;;;5008706;28;20037;-74
2022/04/20 05:42:53;;;;;;;1.70;1.60;;;10.10;99.90;;;;;;5005201;28;20044;-71
2022/04/20 05:45:19;;;;;;;1.58;1.48;;;10.10;99.90;;;;;;5009206;28;20029;-74
2022/04/20 05:47:46;;;;;;;2.08;1.80;;;10.20;99.90;;;;;;5013005;28;20026;-74
2022/04/20 05:50:12;;;;;;;2.10;1.90;;;10.20;99.90;;;;;;5012120;28;20120;-72
2022/04/20 05:52:38;;;;;;;1.95;1.65;;;10.20;99.90;;;;;;5012824;28;20110;-73
2022/04/20 05:55:04;;;;;;;2.60;1.58;;;10.20;99.90;;;;;;5013927;28;20101;-74
2022/04/20 05:57:30;;;;;;;1.67;1.58;;;10.20;99.90;;;;;;5006285;28;20018;-74
2022/04/20 05:59:56;;;;;;;1.83;1.63;;;10.20;99.90;;;;;;5013006;28;20100;-74
2022/04/20 06:02:22;;;;;;;1.73;1.52;;;10.20;99.90;;;;;;5012094;28;20041;-74
2022/04/20 06:04:48;;;;;;;3.42;2.10;;;10.30;99.90;;;;;;5011250;28;20417;-73
2022/04/20 06:07:14;;;;;;;2.80;1.63;;;10.40;99.90;;;;;;5009383;28;20113;-73
2022/04/20 06:09:40;;;;;;;2.20;1.70;;;10.50;99.90;;;;;;5011392;28;20042;-75
2022/04/20 06:12:07;;;;;;;3.70;2.30;;;10.60;99.90;;;;;;5011641;28;20096;-75
2022/04/20 06:14:33;;;;;;;2.47;1.55;;;10.60;99.90;;;;;;5009156;28;20250;-72
2022/04/20 06:16:59;;;;;;;3.53;1.65;;;10.60;99.90;;;;;;5010087;28;20030;-72
2022/04/20 06:19:25;;;;;;;2.25;1.77;;;10.60;99.90;;;;;;5010985;28;20103;-72
2022/04/20 06:21:50;;;;;;;1.50;1.40;;;10.70;99.90;;;;;;5011209;28;20026;-73
2022/04/20 06:24:16;;;;;;;1.63;1.45;;;10.70;99.90;;;;;;5017357;28;20026;-70
2022/04/20 06:26:42;;;;;;;2.45;1.17;;;10.60;99.90;;;;;;5009466;28;20022;-70
2022/04/20 06:29:08;;;;;;;4.43;1.65;;;10.60;99.90;;;;;;5014157;28;20018;-73
2022/04/20 06:31:34;;;;;;;2.85;1.52;;;10.70;99.90;;;;;;5016841;28;20036;-71
2022/04/20 06:33:59;;;;;;;6.07;1.25;;;10.80;99.90;;;;;;5014275;28;20052;-71
2022/04/20 06:36:26;;;;;;;2.17;1.98;;;10.80;99.90;;;;;;5010197;28;20061;-71
2022/04/20 06:38:52;;;;;;;1.63;1.52;;;10.80;99.90;;;;;;5011070;28;20038;-70
2022/04/20 06:41:18;;;;;;;1.60;1.25;;;10.90;99.90;;;;;;5013401;28;20026;-71
2022/04/20 06:43:44;;;;;;;1.23;1.15;;;10.90;99.90;;;;;;5017596;28;20105;-71
2022/04/20 06:46:10;;;;;;;2.65;1.52;;;10.90;99.90;;;;;;5016153;28;20022;-72
2022/04/20 06:48:36;;;;;;;1.98;1.50;;;11.00;99.90;;;;;;5012882;28;20048;-71
2022/04/20 06:51:02;;;;;;;1.60;1.50;;;11.10;99.90;;;;;;5011211;28;20069;-72
2022/04/20 06:58:57;;;;;;;2.72;1.63;;;11.30;99.90;;;;;;5010876;28;20033;-71
2022/04/20 07:01:22;;;;;;;3.75;1.58;;;11.40;99.90;;;;;;5011926;28;20026;-72
2022/04/20 07:03:48;;;;;;;1.42;1.33;;;11.30;99.90;;;;;;5011599;28;20037;-72
2022/04/20 07:06:14;;;;;;;4.28;1.52;;;11.30;99.90;;;;;;5013507;28;20057;-72
2022/04/20 07:08:40;;;;;;;1.50;1.40;;;11.40;99.90;;;;;;5010816;28;20057;-72
2022/04/20 07:11:06;;;;;;;5.22;1.80;;;11.40;99.90;;;;;;5010211;28;20030;-72
2022/04/20 07:13:32;;;;;;;7.93;1.55;;;11.50;99.90;;;;;;5011051;28;20018;-72
2022/04/20 07:15:58;;;;;;;2.05;1.88;;;11.60;99.90;;;;;;5011533;28;20041;-72
2022/04/20 07:18:24;;;;;;;1.67;1.33;;;11.80;99.90;;;;;;5011702;28;20462;-72
2022/04/20 07:20:50;;;;;;;2.20;1.65;;;11.70;99.90;;;;;;5010914;28;20033;-72
2022/04/20 07:23:16;;;;;;;1.60;1.50;;;11.60;99.90;;;;;;5009770;28;20075;-73
2022/04/20 07:25:42;;;;;;;2.63;1.92;;;11.60;99.90;;;;;;5010955;28;20389;-72
2022/04/20 07:28:09;;;;;;;1.40;1.30;;;11.80;99.90;;;;;;5011420;28;20037;-73
2022/04/20 07:30:36;;;;;;;4.32;1.73;;;11.70;99.90;;;;;;5009829;28;20061;-73
2022/04/20 07:33:02;;;;;;;2.75;1.63;;;11.80;99.90;;;;;;5013082;28;20030;-72
2022/04/20 07:35:29;;;;;;;2.50;2.10;;;12.00;99.90;;;;;;5013156;28;20103;-72
2022/04/20 07:37:55;;;;;;;3.30;1.52;;;12.00;99.90;;;;;;5022693;28;20014;-72
2022/04/20 07:40:22;;;;;;;3.22;2.42;;;12.00;99.90;;;;;;5021928;28;20026;-74
2022/04/20 07:43:07;;;;;;;4.80;1.98;;;12.10;99.90;;;;;;5023343;28;20026;-74
2022/04/20 07:45:59;;;;;;;2.70;1.73;;;12.20;99.90;;;;;;5019725;28;20088;-76
2022/04/20 07:48:49;;;;;;;1.70;1.60;;;12.20;99.90;;;;;;5019550;28;20104;-73
2022/04/20 07:51:41;;;;;;;1.73;1.60;;;12.40;99.90;;;;;;5014350;28;20301;-72
2022/04/20 07:54:12;;;;;;;3.78;1.88;;;12.30;99.90;;;;;;5015082;28;20026;-73
2022/04/20 07:56:37;;;;;;;5.45;2.22;;;12.00;99.90;;;;;;5016527;28;20030;-72
2022/04/20 07:59:03;;;;;;;1.70;1.60;;;12.10;99.90;;;;;;5021044;28;20034;-72
2022/04/20 08:01:29;;;;;;;4.05;2.95;;;12.20;99.90;;;;;;5018880;28;20037;-74
2022/04/20 08:03:54;;;;;;;2.92;1.67;;;12.20;99.90;;;;;;5021745;28;20022;-73
2022/04/20 08:06:20;;;;;;;2.83;1.98;;;12.30;99.90;;;;;;5021978;28;20034;-73
2022/04/20 08:08:46;;;;;;;2.35;2.00;;;12.40;99.90;;;;;;5021186;28;20062;-74
2022/04/20 08:11:12;;;;;;;2.85;2.65;;;12.50;99.90;;;;;;5020728;28;20041;-74
2022/04/20 08:16:22;;;;;;;2.63;2.15;;;12.20;99.90;;;;;;5023380;28;20528;-73
2022/04/20 08:18:48;;;;;;;2.53;1.73;;;12.30;99.90;;;;;;5021153;28;20081;-73
2022/04/20 08:21:13;;;;;;;3.28;2.67;;;12.30;99.90;;;;;;5022155;28;20026;-73
2022/04/20 08:23:39;;;;;;;2.40;1.60;;;12.50;99.90;;;;;;5016615;28;20026;-71
2022/04/20 08:26:05;;;;;;;4.82;2.63;;;12.30;99.90;;;;;;5010793;28;20375;-73
2022/04/20 08:28:31;;;;;;;2.58;2.17;;;12.30;99.90;;;;;;5011046;28;20558;-73
2022/04/20 08:30:56;;;;;;;2.15;1.92;;;12.40;99.90;;;;;;5011543;28;20033;-74
2022/04/20 08:33:22;;;;;;;2.50;2.30;;;12.60;99.90;;;;;;5009386;28;20030;-73
2022/04/20 08:35:48;;;;;;;2.95;1.90;;;12.60;99.90;;;;;;5008572;28;20026;-73
2022/04/20 08:38:14;;;;;;;3.75;2.67;;;12.80;99.90;;;;;;5013631;28;20045;-73
2022/04/20 08:40:40;;;;;;;3.90;2.42;;;12.80;99.90;;;;;;5012422;28;20371;-72
2022/04/20 08:43:06;;;;;;;3.55;2.38;;;12.80;99.90;;;;;;5009661;28;20731;-71
2022/04/20 08:45:37;;;;;;;2.65;2.30;;;13.00;99.90;;;;;;5010580;28;20036;-70
2022/04/20 08:48:05;;;;;;;3.05;2.05;;;13.00;99.90;;;;;;5008399;28;20077;-70
2022/04/20 08:50:31;;;;;;;2.50;2.30;;;12.90;99.90;;;;;;5013146;28;20125;-73
2022/04/20 08:52:58;;;;;;;2.65;2.45;;;13.10;99.90;;;;;;5012715;28;20030;-71
2022/04/20 08:55:24;;;;;;;2.50;2.30;;;13.20;99.90;;;;;;5011887;28;20056;-75
2022/04/20 08:57:52;;;;;;;3.20;2.90;;;13.10;99.90;;;;;;5011501;28;20589;-74
2022/04/20 09:00:25;;;;;;;5.60;3.35;;;13.00;99.90;;;;;;5007313;28;20593;-74
2022/04/20 09:02:56;;;;;;;3.20;2.90;;;12.80;99.90;;;;;;5009608;28;20026;-75
2022/04/20 09:05:24;;;;;;;3.72;3.30;;;13.00;99.90;;;;;;5010278;28;20030;-74
2022/04/20 09:07:49;;;;;;;2.92;2.63;;;13.10;99.90;;;;;;5009612;28;20040;-73
2022/04/20 09:10:16;;;;;;;2.72;2.53;;;13.20;99.90;;;;;;5009534;28;20493;-74
2022/04/20 09:12:43;;;;;;;3.22;3.03;;;13.40;99.90;;;;;;5010024;28;20018;-73
2022/04/20 09:15:28;;;;;;;3.65;2.97;;;13.40;99.90;;;;;;5010877;28;20030;-74
2022/04/20 09:17:56;;;;;;;3.15;2.83;;;13.30;99.90;;;;;;5010665;28;20026;-73
2022/04/20 09:20:22;;;;;;;4.03;3.20;;;13.50;99.90;;;;;;5015382;28;20573;-74
2022/04/20 09:23:07;;;;;;;5.80;3.30;;;13.60;99.90;;;;;;5013771;28;20261;-71
2022/04/20 09:25:37;;;;;;;3.42;3.13;;;13.90;99.90;;;;;;5013469;28;20228;-73
2022/04/20 09:28:04;;;;;;;2.83;2.63;;;14.00;99.90;;;;;;5014135;28;20064;-72
2022/04/20 09:30:39;;;;;;;3.75;3.13;;;13.80;99.90;;;;;;5013709;28;20036;-71
2022/04/20 09:33:09;;;;;;;5.28;3.20;;;13.80;99.90;;;;;;5012361;28;20047;-71
2022/04/20 09:35:44;;;;;;;2.65;2.50;;;13.80;99.90;;;;;;5015234;28;20029;-73
2022/04/20 09:38:10;;;;;;;4.57;3.00;;;13.70;99.90;;;;;;5014981;28;20093;-73
2022/04/20 09:40:38;;;;;;;2.70;2.47;;;14.00;99.90;;;;;;5015594;28;20431;-73
2022/04/20 09:43:07;;;;;;;4.18;3.38;;;14.20;99.90;;;;;;5012806;28;20105;-74
2022/04/20 09:45:35;;;;;;;3.47;3.17;;;14.30;99.90;;;;;;5016111;28;20018;-73
2022/04/20 09:51:20;;;;;;;3.38;2.97;;;14.40;99.90;;;;;;5017312;28;20037;-73
2022/04/20 09:53:50;;;;;;;5.53;3.03;;;14.60;99.90;;;;;;5013920;28;20030;-72
2022/04/20 09:56:25;;;;;;;3.63;3.28;;;14.70;99.90;;;;;;5015386;28;20106;-73
2022/04/20 09:59:01;;;;;;;3.67;3.33;;;14.80;99.90;;;;;;5015272;28;20029;-74
2022/04/20 10:01:36;;;;;;;4.45;2.80;;;14.80;99.90;;;;;;5015329;28;20076;-73
2022/04/20 10:04:04;;;;;;;3.28;2.92;;;14.80;99.90;;;;;;5013596;28;20107;-72
2022/04/20 10:06:30;;;;;;;4.10;2.72;;;14.90;99.90;;;;;;5008575;28;20117;-74
2022/04/20 10:08:56;;;;;;;8.27;2.80;;;15.00;99.90;;;;;;5013746;28;20025;-74
2022/04/20 10:11:23;;;;;;;5.68;3.17;;;15.10;99.90;;;;;;5013980;28;20385;-75
2022/04/20 10:16:49;;;;;;;7.28;3.42;;;15.00;99.90;;;;;;5014287;28;20481;-72
2022/04/20 10:19:18;;;;;;;;;;;14.80;99.90;;;;;;5015063;28;20386;-72
2022/04/20 10:21:53;;;;;;;5.55;3.15;;;14.40;99.90;;;;;;5013835;28;19949;-73
2022/04/20 10:24:30;;;;;;;5.38;3.47;;;14.40;99.90;;;;;;5010971;28;20117;-72
2022/04/20 10:27:03;;;;;;;3.50;3.13;;;14.70;99.90;;;;;;5013467;28;20137;-73
2022/04/20 10:29:46;;;;;;;5.40;3.03;;;14.70;99.90;;;;;;5012649;28;20401;-73
2022/04/20 10:32:23;;;;;;;4.78;2.95;;;14.90;99.90;;;;;;5010963;28;20022;-75
2022/04/20 10:34:52;;;;;;;3.08;2.83;;;15.10;99.90;;;;;;5010945;28;20180;-74
2022/04/20 10:37:21;;;;;;;3.20;2.55;;;14.90;99.90;;;;;;5008923;28;20220;-74
2022/04/20 10:39:47;;;;;;;4.28;2.78;;;14.90;99.90;;;;;;5012870;28;20018;-76
2022/04/20 10:42:15;;;;;;;4.50;2.90;;;15.00;99.90;;;;;;5017241;28;20022;-74
2022/04/20 10:44:56;;;;;;;2.92;2.65;;;14.60;99.90;;;;;;5020114;28;20022;-75
2022/04/20 10:47:42;;;;;;;2.22;2.05;;;14.50;99.90;;;;;;5019003;28;20430;-77
2022/04/20 10:50:33;;;;;;;2.75;1.92;;;14.30;99.90;;;;;;5010244;28;20083;-75
2022/04/20 10:53:03;;;;;;;2.50;2.30;;;14.70;99.90;;;;;;5006769;28;20022;-76
2022/04/20 10:55:32;;;;;;;12.43;1.92;;;14.90;99.90;;;;;;5029042;28;20040;-76
2022/04/20 10:58:15;;;;;;;2.42;1.88;;;15.00;99.90;;;;;;5016240;28;20105;-76
2022/04/20 11:00:42;;;;;;;1.77;1.65;;;15.10;99.90;;;;;;5015233;28;20018;-73
2022/04/20 11:03:10;;;;;;;2.28;2.08;;;15.10;99.90;;;;;;5012646;28;20113;-74
2022/04/20 11:05:53;;;;;;;3.80;2.03;;;15.00;99.90;;;;;;5013223;28;20068;-74
2022/04/20 11:08:20;;;;;;;4.22;2.30;;;14.80;99.90;;;;;;5011288;28;20053;-76
2022/04/20 11:19:48;;;;;;;2.28;2.05;;;15.30;99.90;;;;;;5003452;28;20578;-74
2022/04/20 11:22:14;;;;;;;2.67;1.77;;;15.50;99.90;;;;;;5013973;28;20030;-74
2022/04/20 11:24:40;;;;;;;2.25;2.05;;;15.40;99.90;;;;;;5005619;28;20045;-75
2022/04/20 11:27:07;;;;;;;2.00;1.90;;;15.50;99.90;;;;;;5003632;28;20026;-75
2022/04/20 11:29:33;;;;;;;2.30;2.10;;;15.60;99.90;;;;;;5003482;28;20033;-75
2022/04/20 11:32:10;;;;;;;2.05;1.85;;;15.70;99.90;;;;;;5007325;28;20034;-75
2022/04/20 11:34:41;;;;;;;2.17;1.98;;;15.80;98.90;;;;;;4997927;28;20049;-73
2022/04/20 11:37:09;;;;;;;3.58;1.77;;;15.60;99.50;;;;;;5000096;28;20018;-75
2022/04/20 11:39:35;;;;;;;2.65;1.98;;;15.80;99.90;;;;;;5007216;28;20624;-75
2022/04/20 11:42:04;;;;;;;2.15;1.75;;;16.10;98.70;;;;;;5008957;28;20030;-75
2022/04/20 11:44:42;;;;;;;2.13;2.00;;;16.20;98.60;;;;;;5013084;28;20546;-75
2022/04/20 11:47:10;;;;;;;2.28;1.90;;;16.40;98.50;;;;;;5009179;28;20544;-74
2022/04/20 11:49:40;;;;;;;1.60;1.50;;;16.50;98.60;;;;;;5019162;28;20079;-74
2022/04/20 11:52:09;;;;;;;2.05;1.77;;;16.60;98.60;;;;;;5005151;28;20018;-73
2022/04/20 11:54:36;;;;;;;2.05;1.88;;;16.70;98.60;;;;;;5007663;28;20573;-74
2022/04/20 11:57:07;;;;;;;2.00;1.90;;;16.70;98.20;;;;;;5004787;28;20022;-74
2022/04/20 11:59:33;;;;;;;2.13;1.92;;;16.80;98.90;;;;;;5002692;28;20022;-75
2022/04/20 12:01:59;;;;;;;2.45;2.25;;;16.70;99.70;;;;;;5004243;28;20057;-74
2022/04/20 12:04:31;;;;;;;1.80;1.70;;;16.70;99.20;;;;;;5009956;28;20042;-74
2022/04/20 12:07:01;;;;;;;2.10;1.92;;;16.20;97.70;;;;;;5003061;28;20044;-75
2022/04/20 12:09:36;;;;;;;2.00;1.90;;;16.00;98.20;;;;;;5008160;28;20025;-73
2022/04/20 12:12:07;;;;;;;2.58;2.03;;;16.30;97.40;;;;;;5012456;28;20029;-74
2022/04/20 12:14:38;;;;;;;4.65;2.53;;;16.40;96.20;;;;;;5011859;28;20329;-73
2022/04/20 12:17:19;;;;;;;2.28;2.08;;;16.70;96.80;;;;;;5012691;28;20026;-74
2022/04/20 12:19:46;;;;;;;2.20;2.00;;;16.80;94.70;;;;;;5009572;28;20125;-75
2022/04/20 12:22:13;;;;;;;2.13;1.92;;;16.80;96.60;;;;;;5007554;28;20033;-73
2022/04/20 12:24:42;;;;;;;4.38;1.98;;;16.80;96.80;;;;;;5014356;28;20043;-75
2022/04/20 12:27:22;;;;;;;7.75;1.80;;;16.80;99.20;;;;;;5002956;28;20045;-74
2022/04/20 12:29:57;;;;;;;2.45;2.15;;;16.90;99.30;;;;;;4998636;28;20379;-76
2022/04/20 12:32:25;;;;;;;1.75;1.65;;;17.00;98.30;;;;;;5007918;28;20072;-74
2022/04/20 12:34:59;;;;;;;3.45;2.00;;;17.20;95.90;;;;;;5005838;28;20026;-74
2022/04/20 12:37:29;;;;;;;2.30;1.77;;;17.20;96.30;;;;;;5003602;28;20018;-74
2022/04/20 12:39:57;;;;;;;2.13;1.88;;;17.30;96.30;;;;;;5007075;28;20498;-73
2022/04/20 12:42:25;;;;;;;3.97;1.55;;;17.10;97.60;;;;;;5011641;28;20030;-74
2022/04/20 12:44:54;;;;;;;3.38;2.10;;;17.40;96.60;;;;;;5007182;28;20034;-73
2022/04/20 12:47:22;;;;;;;4.20;1.88;;;17.60;96.10;;;;;;5013588;28;20478;-74
2022/04/20 12:50:07;;;;;;;3.13;2.00;;;17.70;97.10;;;;;;5010764;28;20482;-77
2022/04/20 12:52:33;;;;;;;2.78;2.58;;;17.60;96.80;;;;;;5011649;28;20026;-75
2022/04/20 12:55:08;;;;;;;2.38;1.83;;;17.60;96.60;;;;;;5006821;28;20018;-75
2022/04/20 13:03:18;;;;;;;2.65;2.08;;;17.50;96.90;;;;;;5008450;28;20556;-75
2022/04/20 13:05:50;;;;;;;2.17;2.05;;;17.80;96.60;;;;;;5020369;28;20030;-75
2022/04/20 13:08:17;;;;;;;3.45;1.67;;;17.90;97.00;;;;;;5018220;28;20076;-76
2022/04/20 13:10:51;;;;;;;3.30;1.67;;;17.90;96.50;;;;;;5009522;28;20033;-74
2022/04/20 13:13:22;;;;;;;3.70;2.15;;;17.90;96.80;;;;;;5011647;28;20022;-75
2022/04/20 13:15:47;;;;;;;1.77;1.63;;;17.80;96.00;;;;;;5014670;28;20101;-75
2022/04/20 13:18:13;;;;;;;2.75;1.63;;;17.70;96.50;;;;;;5016311;28;20109;-74
2022/04/20 13:20:39;;;;;;;5.55;1.85;;;17.80;95.70;;;;;;5016132;28;20025;-73
2022/04/20 13:23:05;;;;;;;6.03;2.40;;;17.40;99.90;;;;;;5008922;28;20486;-75
2022/04/20 13:28:15;;;;;;;2.92;1.77;;;16.40;99.90;;;;;;5013295;28;20095;-74
2022/04/20 13:30:41;;;;;;;1.58;1.48;;;16.40;99.90;;;;;;5013691;28;20081;-74
2022/04/20 13:33:11;;;;;;;4.97;3.00;;;16.10;99.90;;;;;;5008886;28;20050;-75
2022/04/20 13:35:38;;;;;;;4.50;1.92;;;15.80;99.90;;;;;;5010326;28;20029;-76
2022/04/20 13:38:07;;;;;;;3.08;2.22;;;15.70;99.90;;;;;;5008647;28;20393;-74